Aérodrome :
LOGIN :

S'inscrire | Disclaimer

   EN    FR    IT 

 










Légende :    VFR   VFR Marginal   IFR   IFR Intensif   IFR Très Intensif
Visi : 
Plafond : 
>= 8 km
>= 3000ft
5 à 8 km
1000 à 3000 ft
1500m à 5 km
500 à 1000 ft
800 à 1500m
200 à 500 ft
< 800m
< 200 ft
Symboles :   Orages  Brouillard  Fortes neiges  Fortes précipitations  Vent > 20 kt
SIGMETs :   Divers  Orages  Givrage  Turbulence  Onde Orograph.  Cendres Volcan.







- Altitude de l'aérodrome : 117 ft
- Code IATA : NWI
- Voir les cartes d'approche


EGSH - Norwich

DERNIER METAR :
  • 250750Z 32013G23KT 280V010 9999 SCT028 07/02 Q1028 NOSIG

METARs EXPIRÉS :
  • 250720Z 31011KT 280V360 9999 SCT028 06/01 Q1027 NOSIG
  • 250650Z 31008KT 280V360 9999 FEW033 05/01 Q1027 NOSIG
  • 250620Z 30008KT 270V330 9999 SCT034 04/01 Q1027 NOSIG
  • 250550Z 29009KT 9999 FEW030 05/01 Q1026
  • 250520Z AUTO 30009KT 250V330 9999 NCD 05/01 Q1026

TAF TAF EGSH
Valide du 25 à 06h jusqu'au 25 à 15h UTC


250456Z 2506/2515 32012KT 9999 FEW040
TEMPO 2509/2515 33016G26KT
ATIS : +44 1603 420 640
Pas de NOTAMs connus pour ce terrain.
1 SIGMET publié pour la FIR London (EGTT) :
 
Turbulence forte
EGTT SIGMET 02 VALID 250600/251000 EGRR
EGTT LONDON FIR SEV TURB FCST NE OF LINE N5500 E00153 - N5309 E00324 SFC/FL060 STNR WKN=



MET'MAP, la Météo Aéronautique d'un coup d'oeil ! - Copyright ORBIFLY Décembre 2007 - Disclaimer

ORBIFLY MET'MAP TEAM :

Programmation & Développement : Alexandra Zaïnal
Conception & Développement : Baudouin d'Aumeries
Co-Programmation & Développement : Marc-Olivier Méhu
Soutien technique & logistique : Manuel Goepfert

Contact : metmap@orbifly.com




SOURCES & CREDITS :

   NOAA